createdAt,value
2023-02-13T00:01:32.619Z,9.27
2023-02-13T00:04:02.009Z,9.73
2023-02-13T00:06:30.503Z,10.80
2023-02-13T00:08:58.968Z,9.60
2023-02-13T00:11:27.465Z,10.77
2023-02-13T00:13:57.332Z,12.20
2023-02-13T00:16:25.796Z,10.23
2023-02-13T00:18:54.187Z,10.57
2023-02-13T00:21:22.667Z,12.23
2023-02-13T00:23:51.221Z,10.43
2023-02-13T00:26:19.636Z,9.60
2023-02-13T00:28:48.727Z,9.00
2023-02-13T00:31:21.653Z,9.67
2023-02-13T00:33:51.080Z,9.40
2023-02-13T00:36:22.328Z,7.80
2023-02-13T00:38:51.733Z,8.67
2023-02-13T00:41:22.150Z,9.80
2023-02-13T00:43:51.080Z,9.00
2023-02-13T00:46:21.012Z,9.77
2023-02-13T00:48:49.554Z,9.10
2023-02-13T00:51:17.995Z,7.80
2023-02-13T00:53:46.436Z,8.93
2023-02-13T00:56:16.950Z,9.17
2023-02-13T00:58:46.978Z,9.93
2023-02-13T01:01:15.478Z,9.33
2023-02-13T01:03:45.392Z,9.60
2023-02-13T01:06:13.774Z,8.90
2023-02-13T01:08:43.136Z,9.50
2023-02-13T01:11:11.690Z,9.27
2023-02-13T01:13:40.582Z,9.70
2023-02-13T01:16:09.419Z,8.80
2023-02-13T01:18:38.206Z,9.50
2023-02-13T01:21:14.270Z,8.67
2023-02-13T01:23:42.778Z,9.30
2023-02-13T01:26:18.655Z,8.20
2023-02-13T01:28:47.351Z,8.13
2023-02-13T01:31:16.828Z,8.80
2023-02-13T01:33:45.906Z,8.87
2023-02-13T01:36:15.905Z,9.40
2023-02-13T01:38:44.716Z,9.80
2023-02-13T01:41:15.576Z,8.60
2023-02-13T01:43:53.699Z,9.50
2023-02-13T01:46:31.210Z,10.07
2023-02-13T01:49:05.159Z,10.33
2023-02-13T01:51:37.575Z,10.33
2023-02-13T01:54:09.492Z,9.80
2023-02-13T01:56:44.552Z,10.17
2023-02-13T01:59:16.474Z,11.33
2023-02-13T02:01:46.356Z,10.40
2023-02-13T02:04:18.684Z,11.20
2023-02-13T02:06:53.105Z,11.03
2023-02-13T02:09:32.521Z,11.30
2023-02-13T02:12:05.964Z,11.60
2023-02-13T02:14:37.750Z,12.80
2023-02-13T02:17:08.929Z,12.10
2023-02-13T02:19:46.168Z,11.97
2023-02-13T02:22:53.911Z,12.37
2023-02-13T02:26:13.530Z,11.43
2023-02-13T02:29:08.270Z,12.63
2023-02-13T02:32:22.693Z,11.60
2023-02-13T02:34:59.803Z,11.90
2023-02-13T02:37:47.365Z,11.90
2023-02-13T02:40:27.864Z,11.40
2023-02-13T02:43:14.970Z,11.63
2023-02-13T02:45:52.335Z,13.13
2023-02-13T02:48:49.321Z,13.17
2023-02-13T02:51:28.651Z,13.87
2023-02-13T02:54:30.513Z,12.57
2023-02-13T02:57:05.439Z,13.63
2023-02-13T02:59:52.982Z,14.37
2023-02-13T03:02:39.867Z,13.20
2023-02-13T03:05:38.136Z,13.73
2023-02-13T03:08:06.923Z,13.23
2023-02-13T03:10:57.447Z,14.07
2023-02-13T03:13:41.081Z,14.27
2023-02-13T03:16:35.939Z,13.80
2023-02-13T03:19:22.540Z,14.07
2023-02-13T03:22:16.114Z,16.20
2023-02-13T03:24:55.954Z,13.50
2023-02-13T03:27:54.593Z,14.80
2023-02-13T03:30:36.324Z,16.30
2023-02-13T03:33:39.175Z,15.20
2023-02-13T03:36:37.326Z,14.30
2023-02-13T03:39:13.188Z,14.30
2023-02-13T03:41:48.422Z,15.87
2023-02-13T03:44:23.889Z,15.33
2023-02-13T03:46:56.870Z,15.27
2023-02-13T03:49:48.506Z,14.60
2023-02-13T03:52:23.858Z,13.47
2023-02-13T03:55:15.617Z,15.17
2023-02-13T03:58:03.535Z,15.70
2023-02-13T04:00:37.909Z,14.70
2023-02-13T04:03:12.535Z,15.57
2023-02-13T04:05:46.207Z,15.97
2023-02-13T04:08:14.890Z,14.27
2023-02-13T04:10:52.255Z,14.97
2023-02-13T04:13:28.984Z,15.93
2023-02-13T04:16:04.405Z,14.70
2023-02-13T04:18:34.401Z,15.20
2023-02-13T04:21:05.123Z,14.20
2023-02-13T04:23:35.990Z,14.00
2023-02-13T04:26:11.956Z,15.10
2023-02-13T04:28:40.494Z,14.80
2023-02-13T04:31:09.043Z,13.80
2023-02-13T04:33:37.691Z,14.37
2023-02-13T04:36:07.075Z,15.57
2023-02-13T04:38:35.479Z,15.83
2023-02-13T04:41:03.921Z,14.03
2023-02-13T04:43:33.944Z,14.83
2023-02-13T04:46:02.473Z,14.47
2023-02-13T04:48:31.028Z,15.50
2023-02-13T04:50:59.925Z,14.13
2023-02-13T04:53:28.731Z,15.80
2023-02-13T04:55:57.169Z,15.13
2023-02-13T04:58:25.664Z,14.50
2023-02-13T05:00:55.803Z,15.47
2023-02-13T05:03:24.509Z,16.00
2023-02-13T05:05:53.117Z,14.10
2023-02-13T05:08:21.576Z,15.63
2023-02-13T05:10:50.362Z,15.90
2023-02-13T05:13:21.657Z,14.93
2023-02-13T05:15:50.516Z,14.80
2023-02-13T05:18:20.506Z,14.47
2023-02-13T05:21:10.150Z,15.80
2023-02-13T05:23:37.929Z,14.67
2023-02-13T05:26:06.582Z,15.20
2023-02-13T05:28:52.772Z,15.83
2023-02-13T05:31:21.451Z,14.97
2023-02-13T05:33:51.273Z,13.87
2023-02-13T05:36:19.686Z,14.10
2023-02-13T05:38:48.225Z,15.80
2023-02-13T05:41:16.802Z,16.00
2023-02-13T05:43:45.433Z,14.47
2023-02-13T05:46:14.355Z,16.30
2023-02-13T05:48:42.932Z,16.30
2023-02-13T05:51:12.621Z,14.97
2023-02-13T05:53:41.053Z,16.70
2023-02-13T05:56:09.503Z,16.60
2023-02-13T05:58:38.485Z,15.47
2023-02-13T06:01:07.491Z,15.90
2023-02-13T06:03:36.222Z,15.70
2023-02-13T06:06:04.778Z,15.63
2023-02-13T06:08:34.593Z,16.07
2023-02-13T06:11:03.490Z,15.63
2023-02-13T06:13:32.201Z,14.90
2023-02-13T06:16:00.749Z,16.07
2023-02-13T06:18:29.345Z,15.47
2023-02-13T06:20:59.783Z,16.90
2023-02-13T06:23:28.437Z,18.73
2023-02-13T06:25:58.585Z,15.97
2023-02-13T06:28:27.090Z,15.80
2023-02-13T06:30:56.197Z,16.83
2023-02-13T06:33:25.093Z,14.57
2023-02-13T06:35:53.756Z,17.40
2023-02-13T06:38:22.209Z,18.57
2023-02-13T06:40:51.338Z,16.83
2023-02-13T06:43:21.305Z,16.40
2023-02-13T06:45:51.932Z,17.17
2023-02-13T06:48:20.638Z,18.33
2023-02-13T06:50:49.217Z,18.03
2023-02-13T06:53:17.662Z,17.17
2023-02-13T06:55:46.136Z,18.07
2023-02-13T06:58:14.737Z,17.57
2023-02-13T07:00:44.497Z,17.77
2023-02-13T07:03:13.143Z,17.70
2023-02-13T07:05:42.334Z,19.63
2023-02-13T07:08:12.133Z,17.53
2023-02-13T07:10:41.154Z,16.73
2023-02-13T07:13:11.047Z,17.20
2023-02-13T07:15:40.389Z,18.57
2023-02-13T07:18:10.490Z,18.00
2023-02-13T07:20:38.884Z,17.30
2023-02-13T07:23:08.007Z,18.20
2023-02-13T07:25:36.747Z,19.00
2023-02-13T07:28:07.276Z,18.93
2023-02-13T07:30:37.353Z,20.00
2023-02-13T07:33:06.803Z,20.50
2023-02-13T07:35:37.752Z,20.30
2023-02-13T07:38:06.548Z,20.80
2023-02-13T07:40:34.972Z,20.00
2023-02-13T07:43:03.374Z,20.33
2023-02-13T07:45:32.152Z,20.50
2023-02-13T07:48:00.959Z,18.70
2023-02-13T07:50:30.158Z,21.30
2023-02-13T07:53:02.563Z,19.23
2023-02-13T07:55:32.805Z,20.57
2023-02-13T07:58:02.631Z,19.47
2023-02-13T08:00:31.282Z,18.13
2023-02-13T08:03:01.216Z,20.17
2023-02-13T08:05:30.359Z,20.60
2023-02-13T08:08:00.182Z,21.60
2023-02-13T08:10:46.225Z,19.73
2023-02-13T08:13:16.153Z,20.33
2023-02-13T08:15:45.087Z,18.97
2023-02-13T08:18:13.493Z,19.33
2023-02-13T08:20:41.931Z,19.07
2023-02-13T08:23:13.240Z,20.60
2023-02-13T08:25:41.769Z,20.83
2023-02-13T08:28:10.456Z,20.70
2023-02-13T08:30:38.937Z,20.53
2023-02-13T08:33:07.410Z,21.17
2023-02-13T08:35:36.226Z,17.57
2023-02-13T08:38:05.845Z,23.33
2023-02-13T08:40:35.710Z,20.03
2023-02-13T08:43:06.092Z,21.10
2023-02-13T08:45:35.090Z,20.63
2023-02-13T08:48:04.767Z,17.70
2023-02-13T08:50:34.638Z,19.90
2023-02-13T08:53:04.105Z,18.20
2023-02-13T08:55:32.742Z,20.13
2023-02-13T08:58:03.442Z,19.50
2023-02-13T09:00:32.232Z,18.07
2023-02-13T09:03:03.462Z,20.40
2023-02-13T09:05:32.711Z,19.47
2023-02-13T09:08:04.062Z,19.90
2023-02-13T09:10:33.793Z,17.90
2023-02-13T09:13:03.543Z,18.03
2023-02-13T09:15:32.396Z,15.63
2023-02-13T09:18:01.017Z,17.70
2023-02-13T09:20:29.521Z,15.60
2023-02-13T09:22:58.077Z,17.70
2023-02-13T09:25:26.713Z,18.57
2023-02-13T09:27:55.072Z,17.70
2023-02-13T09:30:25.196Z,17.50
2023-02-13T09:32:54.906Z,16.37
2023-02-13T09:35:24.162Z,17.83
2023-02-13T09:37:52.681Z,17.10
2023-02-13T09:40:27.941Z,16.97
2023-02-13T09:43:12.177Z,14.30
2023-02-13T09:45:43.967Z,13.30
2023-02-13T09:48:22.219Z,15.60
2023-02-13T09:50:50.717Z,13.80
2023-02-13T09:53:24.271Z,13.60
2023-02-13T09:56:04.595Z,12.90
2023-02-13T09:58:46.304Z,14.70
2023-02-13T10:01:28.257Z,14.17
2023-02-13T10:04:30.952Z,15.30
2023-02-13T10:07:17.768Z,15.03
2023-02-13T10:09:56.271Z,15.37
2023-02-13T10:12:48.437Z,15.17
2023-02-13T10:15:24.610Z,15.20
2023-02-13T10:18:00.045Z,13.53
2023-02-13T10:20:36.142Z,15.90
2023-02-13T10:23:17.407Z,14.90
2023-02-13T10:25:52.261Z,13.80
2023-02-13T10:28:34.340Z,13.27
2023-02-13T10:31:08.788Z,14.10
2023-02-13T10:33:49.115Z,13.30
2023-02-13T10:36:22.072Z,13.20
2023-02-13T10:38:59.214Z,14.63
2023-02-13T10:41:42.920Z,12.97
2023-02-13T10:44:28.377Z,12.27
2023-02-13T10:47:07.925Z,13.47
2023-02-13T10:49:58.010Z,14.17
2023-02-13T10:52:40.886Z,12.23
2023-02-13T10:55:34.652Z,14.70
2023-02-13T10:58:14.472Z,10.53
2023-02-13T11:00:50.764Z,8.57
2023-02-13T11:03:22.631Z,9.50
2023-02-13T11:05:54.282Z,10.43
2023-02-13T11:08:26.351Z,9.77
2023-02-13T11:10:54.728Z,10.73
2023-02-13T11:13:26.192Z,8.87
2023-02-13T11:16:04.184Z,9.60
2023-02-13T11:18:36.248Z,10.23
2023-02-13T11:21:09.941Z,9.50
2023-02-13T11:23:46.023Z,11.27
2023-02-13T11:26:23.402Z,10.57
2023-02-13T11:28:57.365Z,10.13
2023-02-13T11:31:30.354Z,10.47
2023-02-13T11:33:59.925Z,9.50
2023-02-13T11:36:33.477Z,9.67
2023-02-13T11:39:05.093Z,9.17
2023-02-13T11:41:42.348Z,9.70
2023-02-13T11:44:26.362Z,10.63
2023-02-13T11:46:57.373Z,9.90
2023-02-13T11:49:28.150Z,11.40
2023-02-13T11:51:59.981Z,9.60
2023-02-13T11:54:33.815Z,9.40
2023-02-13T11:57:06.149Z,9.00
2023-02-13T11:59:42.739Z,10.10
2023-02-13T12:02:18.279Z,11.47
2023-02-13T12:04:48.408Z,10.07
2023-02-13T12:07:26.373Z,8.90
2023-02-13T12:10:02.825Z,8.43
2023-02-13T12:12:40.656Z,7.50
2023-02-13T12:15:20.455Z,8.30
2023-02-13T12:17:58.470Z,8.10
2023-02-13T12:20:30.626Z,8.43
2023-02-13T12:23:09.051Z,7.50
2023-02-13T12:26:12.604Z,7.63
2023-02-13T12:29:01.122Z,7.90
2023-02-13T12:31:51.529Z,8.10
2023-02-13T12:35:26.552Z,7.07
2023-02-13T12:38:05.695Z,7.10
2023-02-13T12:40:59.722Z,6.37
2023-02-13T12:44:05.808Z,6.53
2023-02-13T12:46:43.662Z,6.00
2023-02-13T12:49:35.295Z,6.07
2023-02-13T12:52:22.398Z,6.63
2023-02-13T12:55:11.102Z,6.70
2023-02-13T12:58:00.618Z,6.13
2023-02-13T13:00:46.478Z,6.30
2023-02-13T13:03:41.261Z,6.53
2023-02-13T13:06:23.758Z,5.70
2023-02-13T13:09:26.788Z,5.67
2023-02-13T13:12:25.844Z,6.20
2023-02-13T13:15:03.338Z,6.30
2023-02-13T13:17:49.835Z,6.73
2023-02-13T13:20:51.555Z,7.00
2023-02-13T13:23:25.472Z,6.30
2023-02-13T13:26:07.867Z,5.17
2023-02-13T13:28:43.002Z,5.50
2023-02-13T13:31:13.584Z,5.00
2023-02-13T13:33:45.707Z,4.70
2023-02-13T13:36:25.107Z,4.33
2023-02-13T13:39:02.503Z,3.63
2023-02-13T13:41:42.840Z,4.00
2023-02-13T13:44:41.434Z,3.83
2023-02-13T13:47:27.060Z,3.50
2023-02-13T13:49:57.186Z,3.50
2023-02-13T13:52:29.409Z,3.47
2023-02-13T13:55:00.695Z,3.73
2023-02-13T13:58:03.604Z,4.00
2023-02-13T14:00:34.581Z,2.87
2023-02-13T14:03:26.406Z,3.77
2023-02-13T14:06:09.408Z,3.70
2023-02-13T14:09:03.866Z,4.33
2023-02-13T14:11:39.501Z,3.90
2023-02-13T14:14:51.021Z,4.30
2023-02-13T14:18:08.012Z,4.20
2023-02-13T14:20:41.762Z,4.13
2023-02-13T14:23:27.361Z,4.90
2023-02-13T14:26:38.247Z,4.40
2023-02-13T14:29:32.965Z,4.70
2023-02-13T14:32:15.339Z,5.23
2023-02-13T14:34:55.566Z,5.10
2023-02-13T14:37:34.577Z,4.83
2023-02-13T14:40:48.531Z,5.23
2023-02-13T14:43:36.513Z,5.77
2023-02-13T14:46:27.716Z,4.87
2023-02-13T14:49:02.615Z,4.67
2023-02-13T14:51:37.940Z,4.57
2023-02-13T14:54:17.154Z,4.40
2023-02-13T14:56:48.171Z,4.37
2023-02-13T14:59:19.349Z,4.50
2023-02-13T15:01:53.111Z,4.63
2023-02-13T15:04:31.624Z,4.50
2023-02-13T15:07:03.858Z,4.30
2023-02-13T15:09:38.852Z,4.80
2023-02-13T15:12:27.452Z,4.63
2023-02-13T15:14:57.265Z,4.97
2023-02-13T15:17:30.206Z,4.60
2023-02-13T15:20:06.628Z,4.73
2023-02-13T15:22:40.955Z,4.30
2023-02-13T15:25:10.559Z,5.30
2023-02-13T15:27:43.917Z,4.80
2023-02-13T15:30:23.805Z,4.53
2023-02-13T15:32:57.703Z,4.43
2023-02-13T15:35:30.954Z,4.93
2023-02-13T15:38:01.827Z,4.30
2023-02-13T15:40:34.538Z,4.87
2023-02-13T15:43:03.218Z,5.57
2023-02-13T15:45:32.057Z,4.70
2023-02-13T15:48:00.600Z,7.60
2023-02-13T15:50:32.523Z,5.60
2023-02-13T15:53:07.101Z,5.00
2023-02-13T15:55:38.530Z,4.30
2023-02-13T15:58:07.503Z,4.57
2023-02-13T16:00:39.319Z,4.53
2023-02-13T16:03:16.433Z,5.07
2023-02-13T16:05:48.008Z,4.60
2023-02-13T16:08:35.441Z,4.60
2023-02-13T16:11:24.983Z,4.00
2023-02-13T16:14:06.495Z,4.17
2023-02-13T16:16:45.211Z,4.30
2023-02-13T16:19:35.504Z,3.33
2023-02-13T16:22:16.412Z,3.90
2023-02-13T16:24:52.458Z,3.00
2023-02-13T16:27:27.344Z,3.27
2023-02-13T16:29:59.086Z,3.80
2023-02-13T16:32:31.874Z,3.70
2023-02-13T16:35:31.380Z,4.23
2023-02-13T16:38:03.171Z,4.23
2023-02-13T16:40:43.129Z,5.47
2023-02-13T16:43:43.040Z,4.00
2023-02-13T16:46:21.111Z,4.20
2023-02-13T16:49:03.584Z,49.97
2023-02-13T16:51:37.789Z,5.23
2023-02-13T16:54:18.023Z,3.97
2023-02-13T16:56:50.752Z,4.13
2023-02-13T16:59:32.131Z,3.37
2023-02-13T17:02:25.615Z,3.17
2023-02-13T17:04:56.855Z,5.87
2023-02-13T17:07:29.124Z,3.97
2023-02-13T17:10:03.147Z,3.73
2023-02-13T17:12:38.251Z,4.33
2023-02-13T17:15:12.334Z,3.90
2023-02-13T17:17:41.158Z,4.60
2023-02-13T17:20:17.607Z,4.50
2023-02-13T17:22:48.187Z,5.00
2023-02-13T17:25:21.966Z,4.30
2023-02-13T17:27:54.560Z,5.60
2023-02-13T17:30:25.827Z,6.57
2023-02-13T17:33:00.132Z,5.30
2023-02-13T17:35:28.654Z,5.50
2023-02-13T17:37:57.172Z,5.10
2023-02-13T17:40:29.678Z,5.30
2023-02-13T17:43:00.852Z,5.73
2023-02-13T17:45:31.741Z,6.03
2023-02-13T17:48:00.541Z,5.70
2023-02-13T17:50:31.433Z,6.17
2023-02-13T17:53:03.165Z,6.20
2023-02-13T17:55:34.196Z,6.07
2023-02-13T17:58:04.181Z,5.63
2023-02-13T18:00:35.508Z,6.73
2023-02-13T18:03:04.739Z,6.27
2023-02-13T18:05:33.580Z,6.23
2023-02-13T18:08:03.184Z,6.30
2023-02-13T18:10:34.365Z,7.30
2023-02-13T18:13:05.198Z,5.87
2023-02-13T18:15:35.100Z,6.97
2023-02-13T18:18:03.720Z,7.60
2023-02-13T18:20:32.426Z,7.57
2023-02-13T18:23:00.923Z,8.00
2023-02-13T18:25:29.685Z,7.47
2023-02-13T18:27:58.132Z,8.50
2023-02-13T18:30:28.225Z,9.03
2023-02-13T18:32:58.974Z,7.40
2023-02-13T18:35:28.047Z,8.40
2023-02-13T18:37:56.538Z,8.23
2023-02-13T18:40:24.898Z,8.63
2023-02-13T18:42:53.416Z,8.47
2023-02-13T18:45:21.875Z,8.00
2023-02-13T18:47:51.818Z,9.17
2023-02-13T18:50:21.340Z,8.63
2023-02-13T18:52:49.791Z,8.97
2023-02-13T18:55:18.470Z,9.00
2023-02-13T18:57:48.046Z,8.60
2023-02-13T19:00:18.779Z,9.40
2023-02-13T19:02:47.382Z,8.07
2023-02-13T19:05:17.460Z,8.77
2023-02-13T19:07:46.136Z,9.83
2023-02-13T19:10:15.641Z,8.53
2023-02-13T19:12:44.302Z,9.10
2023-02-13T19:15:12.752Z,9.47
2023-02-13T19:17:41.215Z,8.67
2023-02-13T19:20:11.092Z,9.90
2023-02-13T19:22:41.068Z,8.60
2023-02-13T19:25:09.758Z,8.70
2023-02-13T19:27:39.186Z,9.20
2023-02-13T19:30:09.622Z,10.30
2023-02-13T19:32:38.251Z,8.33
2023-02-13T19:35:07.764Z,9.40
2023-02-13T19:37:43.720Z,8.70
2023-02-13T19:40:15.187Z,9.60
2023-02-13T19:42:43.711Z,9.20
2023-02-13T19:45:12.573Z,10.73
2023-02-13T19:47:41.078Z,10.23
2023-02-13T19:50:10.466Z,11.43
2023-02-13T19:52:39.223Z,10.67
2023-02-13T19:55:08.393Z,10.57
2023-02-13T19:57:38.372Z,10.47
2023-02-13T20:00:09.594Z,11.23
2023-02-13T20:02:41.085Z,12.00
2023-02-13T20:05:10.147Z,11.47
2023-02-13T20:07:38.613Z,10.90
2023-02-13T20:10:09.690Z,11.50
2023-02-13T20:12:39.823Z,10.10
2023-02-13T20:15:09.233Z,10.60
2023-02-13T20:17:38.874Z,12.70
2023-02-13T20:20:09.110Z,11.00
2023-02-13T20:22:37.547Z,11.20
2023-02-13T20:25:06.958Z,12.17
2023-02-13T20:27:42.290Z,11.70
2023-02-13T20:30:14.543Z,10.90
2023-02-13T20:32:44.014Z,12.40
2023-02-13T20:35:12.580Z,12.00
2023-02-13T20:37:42.303Z,12.40
2023-02-13T20:40:12.002Z,12.50
2023-02-13T20:42:41.873Z,12.47
2023-02-13T20:45:11.022Z,13.47
2023-02-13T20:47:40.487Z,12.43
2023-02-13T20:50:10.252Z,12.93
2023-02-13T20:52:39.878Z,12.50
2023-02-13T20:55:09.649Z,13.27
2023-02-13T20:58:34.824Z,13.27
2023-02-13T21:01:05.633Z,12.90
2023-02-13T21:03:34.101Z,14.60
2023-02-13T21:06:02.703Z,13.20
2023-02-13T21:08:31.207Z,13.83
2023-02-13T21:11:02.784Z,13.70
2023-02-13T21:13:32.800Z,14.07
2023-02-13T21:16:11.096Z,13.33
2023-02-13T21:18:41.161Z,14.00
2023-02-13T21:21:11.774Z,14.07
2023-02-13T21:23:41.054Z,15.00
2023-02-13T21:26:13.434Z,14.23
2023-02-13T21:28:43.153Z,15.20
2023-02-13T21:31:16.618Z,15.00
2023-02-13T21:33:45.590Z,14.33
2023-02-13T21:36:14.718Z,14.23
2023-02-13T21:38:43.585Z,14.73
2023-02-13T21:41:14.356Z,14.93
2023-02-13T21:43:47.660Z,15.77
2023-02-13T21:46:20.995Z,13.93
2023-02-13T21:48:53.884Z,16.23
2023-02-13T21:51:23.761Z,15.07
2023-02-13T21:53:52.545Z,14.90
2023-02-13T21:56:23.718Z,15.50
2023-02-13T21:58:52.809Z,16.10
2023-02-13T22:01:27.128Z,14.20
2023-02-13T22:04:00.511Z,14.43
2023-02-13T22:06:32.070Z,15.63
2023-02-13T22:09:03.671Z,15.40
2023-02-13T22:11:33.096Z,14.90
2023-02-13T22:14:03.638Z,13.77
2023-02-13T22:16:36.036Z,13.80
2023-02-13T22:19:05.517Z,14.80
2023-02-13T22:21:36.710Z,15.00
2023-02-13T22:24:05.902Z,14.97
2023-02-13T22:26:36.975Z,13.57
2023-02-13T22:29:08.282Z,14.20
2023-02-13T22:31:38.662Z,14.03
2023-02-13T22:34:07.958Z,14.13
2023-02-13T22:36:39.620Z,15.03
2023-02-13T22:39:09.573Z,13.93
2023-02-13T22:41:38.792Z,13.70
2023-02-13T22:44:07.504Z,15.37
2023-02-13T22:46:37.628Z,14.70
2023-02-13T22:49:19.605Z,14.70
2023-02-13T22:51:48.216Z,16.27
2023-02-13T22:54:16.619Z,15.37
2023-02-13T22:56:45.463Z,15.07
2023-02-13T22:59:13.997Z,14.30
2023-02-13T23:01:43.809Z,14.13
2023-02-13T23:04:12.635Z,14.30
2023-02-13T23:06:41.085Z,14.73
2023-02-13T23:09:09.828Z,15.50
2023-02-13T23:11:55.899Z,16.60
2023-02-13T23:14:25.701Z,15.47
2023-02-13T23:17:13.171Z,15.30
2023-02-13T23:19:41.677Z,15.57
2023-02-13T23:22:12.462Z,16.20
2023-02-13T23:24:41.613Z,15.30
2023-02-13T23:27:10.521Z,14.50
2023-02-13T23:29:39.357Z,15.10
2023-02-13T23:32:09.610Z,16.47
2023-02-13T23:34:38.449Z,16.27
2023-02-13T23:37:06.988Z,16.07
2023-02-13T23:39:35.774Z,15.83
2023-02-13T23:42:04.566Z,15.40
2023-02-13T23:44:33.015Z,16.73
2023-02-13T23:47:01.472Z,15.17
2023-02-13T23:49:31.605Z,16.60
2023-02-13T23:52:00.360Z,15.77
2023-02-13T23:54:29.186Z,15.43
2023-02-13T23:56:58.278Z,15.77
2023-02-13T23:59:27.056Z,18.37
